Time;durP1;ratioP1;P1;durP2;ratioP2;P2;SDS_P1;SDS_P2;PMS_P1;PMS_P2;Temp;Humidity;BMP_temperature;BMP_pressure;BME280_temperature;BME280_humidity;BME280_pressure;Samples;Min_cycle;Max_cycle;Signal;HPM_P1;HPM_P2
2023/04/08 00:01:58;;;;;;;30.52;27.83;;;3.20;99.90;;;;;;5013963;28;20132;-75
2023/04/08 00:04:25;;;;;;;30.15;27.45;;;3.50;99.90;;;;;;5032432;28;20041;-75
2023/04/08 00:06:52;;;;;;;28.90;26.00;;;3.40;99.90;;;;;;4992572;28;20148;-74
2023/04/08 00:09:19;;;;;;;29.63;27.00;;;3.30;99.90;;;;;;4997486;28;20044;-76
2023/04/08 00:11:46;;;;;;;30.17;27.15;;;3.30;99.90;;;;;;5014724;28;20041;-75
2023/04/08 00:14:12;;;;;;;28.42;26.00;;;3.30;99.90;;;;;;4991748;28;20053;-74
2023/04/08 00:16:39;;;;;;;28.25;25.85;;;3.30;99.90;;;;;;5022730;28;20069;-77
2023/04/08 00:19:06;;;;;;;30.75;27.73;;;3.40;99.90;;;;;;5009183;28;20113;-78
2023/04/08 00:21:33;;;;;;;31.75;28.83;;;3.50;99.90;;;;;;5011061;28;20098;-76
2023/04/08 00:23:59;;;;;;;29.58;26.85;;;3.50;99.90;;;;;;5011340;28;20045;-75
2023/04/08 00:26:26;;;;;;;30.92;28.10;;;3.50;99.90;;;;;;5020201;28;20075;-75
2023/04/08 00:28:53;;;;;;;28.88;26.27;;;3.60;99.90;;;;;;5014398;28;20390;-77
2023/04/08 00:31:20;;;;;;;28.38;25.52;;;3.60;99.90;;;;;;5018409;28;20144;-75
2023/04/08 00:33:47;;;;;;;28.92;26.50;;;3.70;99.90;;;;;;5020946;28;20146;-75
2023/04/08 00:36:14;;;;;;;30.48;27.52;;;3.70;99.90;;;;;;5032435;28;20037;-76
2023/04/08 00:38:41;;;;;;;31.67;28.77;;;3.70;99.90;;;;;;4998889;28;20067;-76
2023/04/08 00:41:07;;;;;;;29.90;27.27;;;3.70;99.90;;;;;;5001132;28;20663;-77
2023/04/08 00:43:34;;;;;;;29.83;26.98;;;3.60;99.90;;;;;;5019763;28;20049;-75
2023/04/08 00:46:01;;;;;;;30.75;27.85;;;3.70;99.90;;;;;;5012319;28;20045;-76
2023/04/08 00:48:29;;;;;;;30.80;28.10;;;3.90;99.90;;;;;;5016543;28;20049;-75
2023/04/08 00:50:56;;;;;;;30.60;27.90;;;4.00;99.90;;;;;;5004383;28;20056;-77
2023/04/08 00:53:22;;;;;;;31.70;28.85;;;4.00;99.90;;;;;;5014191;28;20072;-78
2023/04/08 00:55:51;;;;;;;28.23;25.83;;;4.00;99.90;;;;;;5029755;28;20041;-76
2023/04/08 00:58:18;;;;;;;31.10;28.27;;;4.00;99.90;;;;;;5034003;28;20144;-76
2023/04/08 01:01:03;;;;;;;29.58;26.95;;;3.90;99.90;;;;;;5013432;28;20052;-76
2023/04/08 01:03:56;;;;;;;31.33;28.52;;;3.90;99.90;;;;;;5016738;28;20045;-75
2023/04/08 01:06:30;;;;;;;31.15;27.75;;;4.00;99.90;;;;;;4990336;28;20037;-75
2023/04/08 01:08:59;;;;;;;29.95;27.17;;;4.10;99.90;;;;;;5015880;28;20133;-74
2023/04/08 01:11:28;;;;;;;31.15;28.23;;;4.30;99.90;;;;;;5013434;28;20526;-75
2023/04/08 01:13:57;;;;;;;31.13;28.38;;;4.40;99.90;;;;;;5035047;28;20076;-76
2023/04/08 01:16:25;;;;;;;29.50;26.88;;;4.50;99.90;;;;;;5028645;28;20049;-76
2023/04/08 01:18:53;;;;;;;30.20;27.50;;;4.50;99.90;;;;;;5003790;28;20045;-76
2023/04/08 01:21:22;;;;;;;33.50;28.55;;;4.60;99.90;;;;;;5013643;28;20076;-75
2023/04/08 01:24:01;;;;;;;30.08;27.42;;;4.70;99.90;;;;;;5013941;28;20462;-76
2023/04/08 01:26:31;;;;;;;31.83;28.80;;;4.70;99.90;;;;;;5017047;28;20061;-78
2023/04/08 01:29:00;;;;;;;31.02;27.88;;;4.80;99.90;;;;;;5028130;28;20128;-78
2023/04/08 01:31:27;;;;;;;30.35;27.75;;;4.80;99.90;;;;;;5031178;28;20049;-75
2023/04/08 01:33:58;;;;;;;30.48;27.85;;;4.80;99.90;;;;;;5013725;28;20044;-77
2023/04/08 01:36:27;;;;;;;30.58;27.58;;;4.80;99.90;;;;;;5032373;28;20132;-74
2023/04/08 01:38:54;;;;;;;30.70;28.02;;;4.80;99.90;;;;;;5030019;28;20052;-78
2023/04/08 01:41:21;;;;;;;30.67;27.92;;;4.70;99.90;;;;;;5016475;28;20092;-76
2023/04/08 01:43:51;;;;;;;30.60;27.80;;;4.70;99.90;;;;;;5033363;28;20140;-79
2023/04/08 01:46:19;;;;;;;30.25;27.30;;;4.70;99.90;;;;;;5016390;28;20067;-79
2023/04/08 01:48:47;;;;;;;30.75;27.77;;;4.60;99.90;;;;;;5031865;28;20044;-76
2023/04/08 01:51:15;;;;;;;31.33;28.58;;;4.60;99.90;;;;;;5009252;28;20061;-77
2023/04/08 01:53:43;;;;;;;30.83;28.08;;;4.60;99.90;;;;;;5016123;28;20411;-79
2023/04/08 01:56:12;;;;;;;31.52;28.58;;;4.60;99.90;;;;;;5014576;28;20484;-77
2023/04/08 01:58:45;;;;;;;31.60;28.77;;;4.70;99.90;;;;;;5013189;28;20050;-76
2023/04/08 02:01:17;;;;;;;31.08;28.30;;;4.70;99.90;;;;;;5015578;28;20057;-75
2023/04/08 02:03:45;;;;;;;31.27;28.58;;;4.70;99.90;;;;;;5023818;28;20048;-77
2023/04/08 02:06:13;;;;;;;31.58;28.55;;;4.60;99.90;;;;;;5016668;28;20111;-76
2023/04/08 02:08:40;;;;;;;30.88;27.88;;;4.60;99.90;;;;;;5019395;28;20045;-76
2023/04/08 02:11:07;;;;;;;30.90;27.88;;;4.60;99.90;;;;;;5021885;28;20371;-75
2023/04/08 02:13:33;;;;;;;28.75;26.25;;;4.60;99.90;;;;;;5022536;28;20112;-73
2023/04/08 02:16:15;;;;;;;29.83;27.00;;;4.60;99.90;;;;;;5014709;28;20053;-74
2023/04/08 02:18:46;;;;;;;30.55;27.75;;;4.60;99.90;;;;;;5011333;28;20106;-75
2023/04/08 02:21:15;;;;;;;31.70;28.40;;;4.70;99.90;;;;;;4991657;28;20510;-75
2023/04/08 02:23:48;;;;;;;31.50;28.63;;;4.60;99.90;;;;;;5012948;28;20049;-74
2023/04/08 02:26:16;;;;;;;30.05;27.10;;;4.70;99.90;;;;;;4990022;28;20737;-74
2023/04/08 02:28:44;;;;;;;30.85;27.85;;;4.70;99.90;;;;;;5010966;28;20069;-76
2023/04/08 02:31:12;;;;;;;31.05;28.23;;;4.80;99.90;;;;;;5009147;28;20053;-73
2023/04/08 02:33:44;;;;;;;31.73;28.63;;;4.80;99.90;;;;;;5022273;28;20056;-76
2023/04/08 02:36:12;;;;;;;31.40;26.10;;;4.80;99.90;;;;;;4991935;28;20522;-75
2023/04/08 02:38:40;;;;;;;29.80;27.05;;;4.90;99.90;;;;;;5000284;28;20148;-73
2023/04/08 02:41:07;;;;;;;29.75;27.02;;;4.80;99.90;;;;;;5007321;28;20033;-75
2023/04/08 02:43:34;;;;;;;29.92;26.92;;;4.80;99.90;;;;;;5005609;28;20267;-76
2023/04/08 02:46:06;;;;;;;30.52;27.73;;;4.80;99.90;;;;;;5012898;28;20038;-75
2023/04/08 02:48:32;;;;;;;28.58;26.13;;;4.80;99.90;;;;;;4999873;28;20081;-76
2023/04/08 02:50:59;;;;;;;30.77;28.08;;;4.80;99.90;;;;;;5027975;28;20053;-76
2023/04/08 02:53:26;;;;;;;28.17;25.73;;;4.80;99.90;;;;;;5008642;28;20091;-75
2023/04/08 02:55:53;;;;;;;29.13;26.48;;;4.80;99.90;;;;;;5008234;28;20045;-75
2023/04/08 02:58:19;;;;;;;29.13;26.63;;;5.00;99.90;;;;;;5028751;28;20140;-76
2023/04/08 03:00:46;;;;;;;30.42;27.50;;;4.90;99.90;;;;;;5008507;28;20069;-75
2023/04/08 03:03:13;;;;;;;30.80;28.08;;;5.10;99.90;;;;;;5025456;28;20053;-75
2023/04/08 03:05:40;;;;;;;29.77;27.08;;;5.20;99.90;;;;;;5031507;28;20048;-74
2023/04/08 03:08:07;;;;;;;31.27;28.33;;;5.10;99.90;;;;;;5026698;28;20048;-74
2023/04/08 03:10:33;;;;;;;30.80;28.02;;;5.10;99.90;;;;;;5010455;28;20150;-76
2023/04/08 03:13:00;;;;;;;31.38;28.35;;;5.10;99.90;;;;;;5020940;28;20045;-74
2023/04/08 03:15:27;;;;;;;31.75;28.55;;;5.10;99.90;;;;;;5009810;28;20051;-76
2023/04/08 03:17:53;;;;;;;30.50;27.67;;;5.00;99.90;;;;;;5028086;28;20548;-78
2023/04/08 03:20:20;;;;;;;30.27;27.23;;;4.90;99.90;;;;;;5024169;28;20107;-76
2023/04/08 03:22:47;;;;;;;28.63;25.85;;;4.90;99.90;;;;;;5006357;28;20073;-77
2023/04/08 03:25:13;;;;;;;27.90;25.17;;;4.90;99.90;;;;;;5024219;28;20071;-77
2023/04/08 03:27:40;;;;;;;27.92;25.27;;;4.90;99.90;;;;;;4996215;28;20046;-76
2023/04/08 03:30:07;;;;;;;27.10;24.45;;;4.70;99.90;;;;;;5008320;28;20045;-77
2023/04/08 03:32:35;;;;;;;27.80;25.20;;;4.70;99.90;;;;;;5008805;28;20045;-75
2023/04/08 03:35:02;;;;;;;28.63;25.75;;;4.60;99.90;;;;;;5004702;28;20582;-78
2023/04/08 03:37:29;;;;;;;28.08;24.75;;;4.70;99.90;;;;;;5006266;28;20069;-77
2023/04/08 03:39:58;;;;;;;28.85;25.58;;;4.70;99.90;;;;;;5027500;28;20042;-75
2023/04/08 03:42:26;;;;;;;27.70;24.77;;;4.70;99.90;;;;;;4995754;28;20041;-76
2023/04/08 03:44:53;;;;;;;27.60;24.80;;;4.70;99.90;;;;;;5010007;28;20064;-78
2023/04/08 03:47:19;;;;;;;27.60;24.90;;;4.70;99.90;;;;;;5005027;28;20045;-77
2023/04/08 03:49:46;;;;;;;28.77;25.48;;;4.70;99.90;;;;;;4996720;28;20041;-77
2023/04/08 03:52:13;;;;;;;26.42;23.70;;;4.70;99.90;;;;;;5022918;28;20045;-78
2023/04/08 03:54:39;;;;;;;26.88;24.17;;;4.70;99.90;;;;;;5025331;28;20042;-79
2023/04/08 03:57:06;;;;;;;28.15;25.30;;;4.70;99.90;;;;;;4998567;28;20634;-76
2023/04/08 03:59:33;;;;;;;26.98;24.38;;;4.70;99.90;;;;;;4974043;28;20050;-81
2023/04/08 04:02:00;;;;;;;27.58;24.88;;;4.80;99.90;;;;;;4997632;28;20038;-77
2023/04/08 04:04:27;;;;;;;29.08;25.98;;;4.80;99.90;;;;;;5009339;28;20415;-79
2023/04/08 04:06:54;;;;;;;31.02;25.55;;;4.80;99.90;;;;;;5023261;28;20069;-78
2023/04/08 04:09:21;;;;;;;28.90;26.17;;;4.80;99.90;;;;;;5029847;23;20077;-73
2023/04/08 04:11:48;;;;;;;28.08;25.23;;;4.90;99.90;;;;;;5011301;28;20037;-73
2023/04/08 04:14:15;;;;;;;29.25;25.90;;;4.90;99.90;;;;;;5034219;28;20042;-74
2023/04/08 04:16:41;;;;;;;30.00;26.25;;;4.80;99.90;;;;;;5006199;28;20108;-74
2023/04/08 04:19:08;;;;;;;29.10;25.98;;;4.80;99.90;;;;;;5017306;28;20044;-73
2023/04/08 04:21:35;;;;;;;29.65;26.67;;;4.70;99.90;;;;;;5031547;28;20044;-73
2023/04/08 04:24:02;;;;;;;32.15;28.23;;;4.70;99.90;;;;;;5035190;28;20035;-73
2023/04/08 04:26:29;;;;;;;30.30;27.30;;;4.70;99.90;;;;;;5010624;28;20498;-74
2023/04/08 04:28:55;;;;;;;30.80;27.15;;;4.70;99.90;;;;;;5034230;28;20043;-74
2023/04/08 04:31:26;;;;;;;30.17;27.08;;;4.80;99.90;;;;;;5032799;28;20037;-73
2023/04/08 04:33:53;;;;;;;31.08;27.90;;;4.80;99.90;;;;;;5023807;28;20048;-73
2023/04/08 04:36:20;;;;;;;30.55;27.25;;;4.80;99.90;;;;;;5019676;28;20041;-73
2023/04/08 04:38:48;;;;;;;31.40;26.35;;;4.80;99.90;;;;;;5036056;28;20032;-73
2023/04/08 04:41:16;;;;;;;33.05;27.05;;;4.80;99.90;;;;;;5031078;28;20044;-73
2023/04/08 04:43:43;;;;;;;30.52;26.15;;;4.80;99.90;;;;;;5054156;28;20079;-73
2023/04/08 04:46:10;;;;;;;32.83;27.55;;;4.70;99.90;;;;;;5048562;28;20052;-73
2023/04/08 04:48:36;;;;;;;34.00;27.60;;;4.70;99.90;;;;;;5051752;28;20128;-73
2023/04/08 04:51:03;;;;;;;34.30;28.65;;;4.70;99.90;;;;;;5046910;28;20125;-73
2023/04/08 04:53:30;;;;;;;35.28;26.95;;;4.70;99.90;;;;;;5016260;28;20026;-73
2023/04/08 04:56:00;;;;;;;33.03;27.10;;;4.70;99.90;;;;;;5051753;28;20113;-73
2023/04/08 04:58:27;;;;;;;36.85;29.15;;;4.80;99.90;;;;;;5043757;28;20489;-73
2023/04/08 05:00:53;;;;;;;34.85;27.25;;;4.80;99.90;;;;;;5056309;28;20498;-74
2023/04/08 05:03:20;;;;;;;36.13;27.17;;;4.80;99.90;;;;;;5037249;28;20068;-72
2023/04/08 05:05:53;;;;;;;40.50;29.58;;;4.80;99.90;;;;;;5048211;28;20044;-74
2023/04/08 05:08:21;;;;;;;44.60;28.45;;;4.80;99.90;;;;;;5031322;28;20049;-73
2023/04/08 05:10:49;;;;;;;49.13;29.98;;;4.90;99.90;;;;;;5037468;28;20033;-72
2023/04/08 05:13:17;;;;;;;49.72;30.55;;;4.90;99.90;;;;;;5028927;28;20517;-73
2023/04/08 05:15:47;;;;;;;47.78;30.38;;;4.90;99.90;;;;;;5027079;28;20064;-74
2023/04/08 05:18:14;;;;;;;49.05;31.75;;;5.00;99.90;;;;;;5038030;28;20047;-73
2023/04/08 05:20:40;;;;;;;46.35;29.63;;;5.00;99.90;;;;;;5046369;28;20040;-73
2023/04/08 05:23:07;;;;;;;47.90;32.10;;;5.00;99.90;;;;;;5028592;28;20410;-74
2023/04/08 05:25:34;;;;;;;49.20;30.70;;;5.00;99.90;;;;;;5028072;28;20042;-74
2023/04/08 05:28:01;;;;;;;48.83;29.45;;;4.90;99.90;;;;;;5017953;28;20041;-74
2023/04/08 05:30:28;;;;;;;45.00;28.77;;;4.70;99.90;;;;;;5045908;28;20036;-74
2023/04/08 05:32:55;;;;;;;46.80;27.45;;;4.70;99.90;;;;;;5024452;28;20048;-74
2023/04/08 05:35:25;;;;;;;46.17;27.90;;;4.60;99.90;;;;;;5043481;28;20037;-74
2023/04/08 05:37:52;;;;;;;54.05;30.33;;;4.60;99.90;;;;;;5042554;28;20110;-76
2023/04/08 05:40:19;;;;;;;46.05;28.45;;;4.70;99.90;;;;;;5022905;28;20080;-74
2023/04/08 05:42:45;;;;;;;50.28;27.70;;;4.60;99.90;;;;;;5029838;28;20044;-76
2023/04/08 05:45:12;;;;;;;45.22;26.60;;;4.60;99.90;;;;;;5014173;28;20487;-74
2023/04/08 05:47:39;;;;;;;52.05;29.13;;;4.50;99.90;;;;;;5019346;28;20077;-74
2023/04/08 05:50:06;;;;;;;54.35;29.08;;;4.60;99.90;;;;;;5010688;28;20083;-74
2023/04/08 05:52:33;;;;;;;48.15;28.33;;;4.60;99.90;;;;;;5019402;28;20850;-74
2023/04/08 05:55:00;;;;;;;47.30;27.08;;;4.70;99.90;;;;;;5028002;28;20063;-74
2023/04/08 05:57:26;;;;;;;44.47;25.80;;;4.60;99.90;;;;;;5037534;28;20408;-74
2023/04/08 05:59:53;;;;;;;54.78;29.63;;;4.60;99.90;;;;;;5036779;28;20041;-74
2023/04/08 06:02:20;;;;;;;46.40;27.33;;;4.50;99.90;;;;;;5052617;28;20037;-74
2023/04/08 06:04:47;;;;;;;44.85;28.30;;;4.60;99.90;;;;;;5023256;28;20045;-74
2023/04/08 06:07:14;;;;;;;51.63;28.33;;;4.60;99.90;;;;;;5045555;28;20112;-74
2023/04/08 06:09:40;;;;;;;46.58;26.50;;;4.60;99.90;;;;;;5040055;28;20159;-73
2023/04/08 06:12:09;;;;;;;47.85;26.95;;;4.70;99.90;;;;;;5046011;28;20660;-74
2023/04/08 06:14:36;;;;;;;48.95;28.45;;;4.60;99.90;;;;;;5025752;28;20041;-74
2023/04/08 06:17:03;;;;;;;47.30;26.67;;;4.60;99.90;;;;;;5029460;28;20132;-74
2023/04/08 06:19:30;;;;;;;48.63;27.25;;;4.60;99.90;;;;;;5010025;28;20048;-74
2023/04/08 06:21:57;;;;;;;48.67;27.00;;;4.70;99.90;;;;;;5023520;28;20390;-74
2023/04/08 06:24:26;;;;;;;49.80;27.67;;;4.70;99.90;;;;;;5008699;28;20131;-74
2023/04/08 06:26:53;;;;;;;52.67;30.20;;;4.70;99.90;;;;;;5000512;28;20123;-75
2023/04/08 06:29:20;;;;;;;47.00;26.73;;;4.70;99.90;;;;;;5043140;28;20045;-75
2023/04/08 06:31:48;;;;;;;56.40;29.50;;;4.70;99.90;;;;;;5022890;28;20106;-75
2023/04/08 06:34:15;;;;;;;47.75;28.20;;;4.70;99.90;;;;;;5049967;28;20071;-75
2023/04/08 06:36:42;;;;;;;50.38;28.10;;;4.70;99.90;;;;;;5019124;28;20095;-75
2023/04/08 06:39:09;;;;;;;49.45;27.60;;;4.80;99.90;;;;;;5046520;28;20051;-75
2023/04/08 06:41:36;;;;;;;52.40;28.02;;;4.90;99.90;;;;;;5044535;28;20070;-75
2023/04/08 06:44:17;;;;;;;55.33;27.50;;;4.90;99.90;;;;;;5039459;28;20073;-75
2023/04/08 06:46:44;;;;;;;47.60;26.58;;;4.90;99.90;;;;;;5036898;28;20041;-75
2023/04/08 06:49:11;;;;;;;53.22;29.65;;;4.90;99.90;;;;;;5033829;28;20037;-75
2023/04/08 06:51:38;;;;;;;53.70;29.15;;;5.00;99.90;;;;;;5041088;28;20045;-75
2023/04/08 06:54:05;;;;;;;54.22;29.42;;;5.10;99.90;;;;;;5027707;28;20037;-75
2023/04/08 06:56:32;;;;;;;56.38;28.95;;;5.10;99.90;;;;;;5032210;28;20041;-75
2023/04/08 06:58:58;;;;;;;53.53;29.25;;;4.90;99.90;;;;;;5012551;28;20095;-75
2023/04/08 07:01:25;;;;;;;55.47;30.85;;;4.90;99.90;;;;;;5011536;28;20128;-75
2023/04/08 07:03:52;;;;;;;50.90;30.10;;;4.90;99.90;;;;;;5030086;28;20136;-75
2023/04/08 07:06:18;;;;;;;52.80;30.33;;;5.00;99.90;;;;;;5035617;28;20041;-75
2023/04/08 07:08:45;;;;;;;48.28;28.05;;;5.10;99.90;;;;;;5021334;28;20045;-75
2023/04/08 07:11:12;;;;;;;51.10;28.88;;;5.10;99.90;;;;;;5041200;28;20048;-75
2023/04/08 07:13:38;;;;;;;46.38;26.70;;;5.10;99.90;;;;;;5007535;28;20404;-75
2023/04/08 07:16:06;;;;;;;57.72;30.60;;;4.90;99.90;;;;;;5000671;28;20045;-75
2023/04/08 07:18:32;;;;;;;56.05;27.77;;;4.90;99.90;;;;;;5029917;28;20068;-75
2023/04/08 07:20:59;;;;;;;53.75;28.50;;;4.80;99.90;;;;;;4988774;28;20128;-76
2023/04/08 07:23:26;;;;;;;57.10;30.27;;;4.90;99.90;;;;;;5020689;28;20104;-75
2023/04/08 07:25:53;;;;;;;51.67;26.65;;;4.80;99.90;;;;;;5005288;28;20037;-75
2023/04/08 07:28:20;;;;;;;49.58;27.77;;;4.90;99.90;;;;;;5009816;28;20052;-75
2023/04/08 07:30:47;;;;;;;52.97;26.90;;;4.90;99.90;;;;;;5004445;28;20568;-75
2023/04/08 07:33:14;;;;;;;54.20;28.38;;;4.90;99.90;;;;;;5007531;28;20532;-75
2023/04/08 07:35:42;;;;;;;50.92;27.20;;;4.90;99.90;;;;;;5006601;28;20037;-75
2023/04/08 07:38:10;;;;;;;54.15;27.23;;;4.90;99.90;;;;;;5018395;28;20041;-75
2023/04/08 07:40:37;;;;;;;50.28;27.33;;;4.80;99.90;;;;;;5003099;28;20133;-75
2023/04/08 07:43:03;;;;;;;56.08;29.23;;;4.90;99.90;;;;;;5048746;28;20036;-75
2023/04/08 07:45:30;;;;;;;52.13;28.20;;;5.00;99.90;;;;;;5042859;28;20065;-75
2023/04/08 07:47:57;;;;;;;54.53;27.98;;;5.00;99.90;;;;;;5017958;28;20525;-74
2023/04/08 07:50:23;;;;;;;54.03;27.30;;;5.10;99.90;;;;;;5024684;28;20028;-76
2023/04/08 07:52:52;;;;;;;53.60;29.70;;;5.10;99.90;;;;;;5006719;28;20037;-76
2023/04/08 07:55:19;;;;;;;51.33;27.58;;;5.20;99.90;;;;;;5038270;28;20037;-76
2023/04/08 07:57:46;;;;;;;50.35;27.13;;;5.20;99.90;;;;;;5042712;28;20044;-76
2023/04/08 08:00:19;;;;;;;51.28;27.92;;;5.20;99.90;;;;;;5024563;28;20056;-76
2023/04/08 08:02:47;;;;;;;44.28;25.95;;;5.20;99.90;;;;;;5035445;28;20048;-76
2023/04/08 08:05:14;;;;;;;45.25;25.83;;;5.30;99.90;;;;;;5041171;28;20049;-76
2023/04/08 08:07:41;;;;;;;47.50;26.73;;;5.30;99.90;;;;;;5041437;28;20441;-76
2023/04/08 08:10:08;;;;;;;44.25;26.35;;;5.30;99.90;;;;;;5043376;28;20043;-76
2023/04/08 08:12:35;;;;;;;44.30;27.05;;;5.40;99.90;;;;;;5025321;28;20413;-76
2023/04/08 08:15:02;;;;;;;41.80;24.13;;;5.40;99.90;;;;;;5038912;28;20047;-76
2023/04/08 08:17:31;;;;;;;39.00;23.75;;;5.30;99.90;;;;;;4990390;28;20038;-76
2023/04/08 08:19:59;;;;;;;46.03;24.77;;;5.20;99.90;;;;;;5023897;28;20164;-75
2023/04/08 08:22:26;;;;;;;47.38;25.90;;;5.20;99.90;;;;;;5039243;28;20430;-76
2023/04/08 08:24:57;;;;;;;42.45;25.48;;;5.30;99.90;;;;;;5029758;28;20059;-76
2023/04/08 08:27:24;;;;;;;40.30;23.42;;;5.40;99.90;;;;;;5040119;28;20493;-76
2023/04/08 08:29:51;;;;;;;44.53;25.98;;;5.50;99.90;;;;;;5025572;28;20489;-76
2023/04/08 08:32:18;;;;;;;38.95;24.23;;;5.40;99.90;;;;;;5012892;28;20045;-76
2023/04/08 08:34:45;;;;;;;39.80;26.15;;;5.40;99.90;;;;;;5040702;28;20045;-76
2023/04/08 08:37:11;;;;;;;43.28;25.83;;;5.40;99.90;;;;;;5043422;28;20045;-76
2023/04/08 08:39:38;;;;;;;43.05;25.85;;;5.50;99.90;;;;;;5025209;28;20677;-76
2023/04/08 08:42:05;;;;;;;41.40;24.27;;;5.70;99.90;;;;;;5039616;28;20040;-76
2023/04/08 08:44:31;;;;;;;40.25;25.75;;;5.70;99.90;;;;;;5040782;28;20036;-75
2023/04/08 08:46:59;;;;;;;42.35;24.65;;;5.80;99.90;;;;;;5041948;28;20048;-76
2023/04/08 08:49:26;;;;;;;44.45;25.60;;;5.80;99.90;;;;;;5047257;28;20120;-76
2023/04/08 08:51:54;;;;;;;39.80;23.23;;;5.80;99.90;;;;;;5051947;28;20048;-76
2023/04/08 08:54:21;;;;;;;45.28;28.00;;;5.90;99.90;;;;;;5029740;28;20072;-76
2023/04/08 08:56:48;;;;;;;41.50;26.38;;;5.90;99.90;;;;;;5051158;28;20037;-77
2023/04/08 08:59:15;;;;;;;41.90;25.92;;;6.00;99.90;;;;;;5024325;28;20055;-76
2023/04/08 09:01:42;;;;;;;41.90;24.70;;;6.00;99.90;;;;;;5018502;28;20040;-76
2023/04/08 09:04:18;;;;;;;39.53;26.75;;;5.90;99.90;;;;;;5050898;28;20156;-76
2023/04/08 09:06:47;;;;;;;43.95;25.58;;;6.10;99.90;;;;;;5028061;28;20067;-76
2023/04/08 09:09:14;;;;;;;42.58;27.00;;;6.20;99.90;;;;;;5033749;28;20051;-76
2023/04/08 09:11:46;;;;;;;40.70;25.15;;;6.50;99.90;;;;;;5032863;28;20104;-76
2023/04/08 09:14:25;;;;;;;41.80;26.42;;;6.50;99.90;;;;;;5018025;28;20045;-76
2023/04/08 09:16:52;;;;;;;42.22;26.15;;;6.50;99.90;;;;;;5025587;28;20124;-77
2023/04/08 09:19:19;;;;;;;38.90;26.10;;;6.40;99.90;;;;;;5056904;28;20218;-77
2023/04/08 09:22:07;;;;;;;44.70;28.15;;;6.50;99.90;;;;;;5013265;28;20045;-77
2023/04/08 09:24:35;;;;;;;40.75;27.15;;;6.40;99.90;;;;;;5059877;28;20091;-76
2023/04/08 09:27:05;;;;;;;41.03;26.95;;;6.50;99.90;;;;;;5034622;28;20048;-76
2023/04/08 09:29:33;;;;;;;41.42;25.50;;;6.40;99.90;;;;;;5035020;28;20127;-76
2023/04/08 09:32:05;;;;;;;38.40;25.45;;;6.40;99.90;;;;;;5016019;28;20041;-76
2023/04/08 09:34:33;;;;;;;42.55;27.05;;;6.30;99.90;;;;;;5015090;28;20061;-76
2023/04/08 09:37:00;;;;;;;42.75;27.60;;;6.10;99.90;;;;;;5039029;28;20045;-75
2023/04/08 09:39:26;;;;;;;40.53;26.70;;;6.10;99.90;;;;;;5002665;28;20028;-76
2023/04/08 09:41:57;;;;;;;39.70;26.58;;;6.10;99.90;;;;;;5036284;28;20032;-76
2023/04/08 09:44:27;;;;;;;44.10;27.85;;;6.20;99.90;;;;;;5046999;28;20053;-75
2023/04/08 09:47:06;;;;;;;41.42;26.98;;;6.40;99.90;;;;;;5042022;28;20033;-76
2023/04/08 09:49:35;;;;;;;43.25;27.25;;;6.40;99.90;;;;;;5023244;28;20609;-76
2023/04/08 09:52:22;;;;;;;46.13;29.23;;;6.60;99.90;;;;;;5041296;28;20075;-76
2023/04/08 09:55:12;;;;;;;41.10;28.17;;;6.50;99.90;;;;;;5027739;28;20410;-76
2023/04/08 09:58:01;;;;;;;44.10;27.13;;;6.40;99.90;;;;;;5013254;28;20040;-76
2023/04/08 10:00:37;;;;;;;40.38;26.45;;;6.70;99.90;;;;;;5033140;28;20040;-76
2023/04/08 10:03:23;;;;;;;43.33;28.85;;;6.80;99.90;;;;;;5022441;28;20103;-76
2023/04/08 10:05:53;;;;;;;42.42;26.48;;;6.40;99.90;;;;;;5016466;28;20049;-76
2023/04/08 10:08:20;;;;;;;42.38;26.38;;;6.20;99.90;;;;;;5028911;28;20149;-76
2023/04/08 10:10:47;;;;;;;57.38;29.33;;;6.40;99.90;;;;;;5028795;28;20033;-76
2023/04/08 10:13:14;;;;;;;44.75;28.33;;;6.70;99.90;;;;;;5029700;28;20131;-77
2023/04/08 10:15:42;;;;;;;44.15;29.75;;;6.70;99.90;;;;;;5049868;28;20041;-76
2023/04/08 10:18:08;;;;;;;45.40;29.35;;;6.80;99.90;;;;;;5042832;28;20047;-77
2023/04/08 10:20:35;;;;;;;42.05;27.60;;;7.00;99.90;;;;;;5033922;28;20049;-76
2023/04/08 10:23:03;;;;;;;43.72;26.98;;;7.10;99.90;;;;;;5027613;28;20052;-75
2023/04/08 10:25:40;;;;;;;48.03;31.30;;;7.20;99.90;;;;;;5013677;28;20128;-76
2023/04/08 10:28:10;;;;;;;42.70;30.75;;;7.00;99.90;;;;;;5029476;28;20040;-76
2023/04/08 10:30:48;;;;;;;43.03;31.20;;;7.20;99.90;;;;;;5015151;28;20636;-75
2023/04/08 10:33:22;;;;;;;40.78;30.17;;;7.40;99.90;;;;;;5029306;28;20067;-76
2023/04/08 10:35:59;;;;;;;45.67;30.73;;;7.70;99.90;;;;;;5008253;28;20034;-77
2023/04/08 10:38:26;;;;;;;38.40;29.25;;;7.60;99.90;;;;;;5050648;28;20083;-76
2023/04/08 10:40:53;;;;;;;43.83;30.63;;;7.30;99.90;;;;;;5014378;28;20552;-77
2023/04/08 10:43:20;;;;;;;49.70;33.92;;;7.20;99.90;;;;;;5023510;28;20053;-76
2023/04/08 10:45:50;;;;;;;46.28;31.55;;;7.40;99.90;;;;;;5052093;28;20383;-76
2023/04/08 10:48:23;;;;;;;47.85;31.58;;;7.30;99.90;;;;;;5044457;28;20037;-76
2023/04/08 10:51:01;;;;;;;48.40;33.47;;;7.40;99.90;;;;;;5045809;28;20049;-77
2023/04/08 10:53:33;;;;;;;52.55;34.45;;;7.60;99.90;;;;;;5049566;28;20135;-76
2023/04/08 10:56:11;;;;;;;46.58;33.63;;;7.80;99.90;;;;;;5047438;28;20072;-77
2023/04/08 10:58:53;;;;;;;47.90;31.55;;;7.90;99.90;;;;;;5033946;28;20056;-76
2023/04/08 11:01:21;;;;;;;45.88;32.33;;;7.70;99.90;;;;;;5047580;28;20052;-76
2023/04/08 11:03:48;;;;;;;41.50;30.70;;;7.60;99.90;;;;;;5023061;28;20041;-77
2023/04/08 11:06:16;;;;;;;46.78;33.65;;;7.70;99.90;;;;;;5009263;28;20041;-77
2023/04/08 11:08:43;;;;;;;43.00;30.48;;;7.80;99.90;;;;;;5018251;28;20041;-77
2023/04/08 11:11:11;;;;;;;44.63;30.60;;;7.80;99.90;;;;;;5029163;28;20036;-76
2023/04/08 11:13:44;;;;;;;48.90;31.15;;;7.50;99.90;;;;;;5028795;28;20053;-75
2023/04/08 11:16:21;;;;;;;42.85;30.48;;;7.60;99.90;;;;;;5042834;28;20067;-75
2023/04/08 11:18:50;;;;;;;43.03;30.50;;;7.20;99.90;;;;;;5027168;28;20040;-76
2023/04/08 11:21:17;;;;;;;48.20;29.90;;;7.40;99.90;;;;;;5029467;28;20033;-76
2023/04/08 11:23:44;;;;;;;45.00;30.83;;;7.50;99.90;;;;;;5030216;28;20047;-76
2023/04/08 11:26:12;;;;;;;44.20;29.80;;;7.40;99.90;;;;;;5027954;28;20044;-75
2023/04/08 11:28:39;;;;;;;50.70;30.88;;;7.30;99.90;;;;;;5030956;28;20521;-76
2023/04/08 11:31:07;;;;;;;45.55;31.90;;;7.50;99.90;;;;;;5048114;28;20058;-76
2023/04/08 11:33:35;;;;;;;52.58;31.95;;;7.60;99.90;;;;;;5030906;28;20162;-76
2023/04/08 11:36:07;;;;;;;46.95;31.55;;;7.80;99.90;;;;;;5045633;28;20040;-76
2023/04/08 11:38:40;;;;;;;49.33;33.92;;;7.70;99.90;;;;;;5026283;28;20041;-76
2023/04/08 11:41:07;;;;;;;46.35;30.65;;;7.50;99.90;;;;;;5050604;28;20036;-76
2023/04/08 11:43:38;;;;;;;44.92;32.10;;;7.50;99.90;;;;;;5040862;28;20051;-76
2023/04/08 11:46:11;;;;;;;48.00;31.10;;;7.50;99.90;;;;;;5029423;28;20049;-76
2023/04/08 11:48:38;;;;;;;48.25;32.17;;;7.50;99.90;;;;;;5029699;28;20060;-76
2023/04/08 11:51:11;;;;;;;50.20;33.72;;;7.40;99.90;;;;;;5041236;28;20673;-76
2023/04/08 11:53:37;;;;;;;51.35;32.05;;;7.50;99.90;;;;;;5029353;28;20037;-75
2023/04/08 11:56:18;;;;;;;52.22;33.42;;;7.50;99.90;;;;;;5031010;28;20382;-75
2023/04/08 11:58:45;;;;;;;46.95;31.50;;;7.30;99.90;;;;;;5025203;28;20438;-75
2023/04/08 12:01:12;;;;;;;54.88;33.53;;;7.40;99.90;;;;;;5044574;28;20529;-75
2023/04/08 12:03:52;;;;;;;49.42;32.05;;;7.40;99.90;;;;;;5030716;28;20048;-76
2023/04/08 12:06:19;;;;;;;49.08;32.10;;;7.40;99.90;;;;;;5019034;28;20048;-76
2023/04/08 12:08:45;;;;;;;59.03;33.35;;;7.50;99.90;;;;;;5044532;28;20709;-75
2023/04/08 12:11:14;;;;;;;49.97;30.25;;;7.30;99.90;;;;;;5018875;28;20045;-75
2023/04/08 12:13:45;;;;;;;51.97;31.70;;;7.30;99.90;;;;;;5019281;28;20045;-75
2023/04/08 12:16:13;;;;;;;50.22;33.00;;;7.20;99.90;;;;;;5035442;28;20036;-74
2023/04/08 12:18:40;;;;;;;52.38;30.80;;;7.10;99.90;;;;;;5026050;28;20563;-75
2023/04/08 12:21:07;;;;;;;55.45;31.00;;;7.10;99.90;;;;;;5041198;28;20049;-75
2023/04/08 12:23:33;;;;;;;50.97;30.88;;;7.20;99.90;;;;;;5046772;28;20029;-75
2023/04/08 12:26:00;;;;;;;50.47;31.20;;;7.30;99.90;;;;;;5047221;28;20516;-75
2023/04/08 12:28:27;;;;;;;48.20;31.30;;;7.50;99.90;;;;;;5039079;28;20044;-75
2023/04/08 12:30:53;;;;;;;50.53;32.58;;;7.70;99.90;;;;;;5026329;28;20709;-75
2023/04/08 12:33:20;;;;;;;50.28;31.42;;;7.80;99.90;;;;;;5046961;28;20588;-75
2023/04/08 12:35:46;;;;;;;55.10;34.50;;;7.70;99.90;;;;;;5027223;28;20075;-74
2023/04/08 12:38:13;;;;;;;53.65;32.53;;;7.80;99.90;;;;;;5042751;28;20082;-75
2023/04/08 12:40:40;;;;;;;51.50;33.17;;;7.70;99.90;;;;;;5028533;28;20043;-75
2023/04/08 12:43:06;;;;;;;57.78;32.65;;;7.60;99.90;;;;;;5038521;28;20044;-74